^^
Lake Charleston Parkviewx Station Historical Data
Daily Summary for November 20, 2019 Units:  Both    English   Metric
Daily Weekly Monthly Yearly Custom
  High: Low: Average:
Temperature: 78.9 °F /  26.1 °C 55.9 °F /  13.3 °C 65.4 °F /  18.6 °C
Dew Point: 57.2 °F /  14 °C 48.7 °F /  9.3 °C 52.4 °F /  11.3 °C
Humidity: 80.8% 38.7% 65%
Wind Speed: 8.9mph /  14.3km/h - 3.7mph /  6km/h
Wind Gust: 15mph /  24.1km/h - -
Wind- - WSW
Pressure: 30.18 in /  1021.9 hPa 30.06 in /  1017.8 hPa -
Precipitation: 0.03 in /  0.76 mm    
Historical Graphs
 
 
Tabular Data for November 20, 2019
Time Temperature Dew Point Pressure Wind Wind Speed Wind Gust Humidity Rainfall Rate (Hourly) solar
00:04 62.2 °F /  16.8 °C 53.1 °F /  11.7 °C 30.06in /  1017.8hPa NNW 3.7mph /  6km/h 5mph /  8km/h 72% 0.00in /  0mm W/m2
00:09 62.1 °F /  16.7 °C 52.7 °F /  11.5 °C 30.06in /  1017.8hPa NNW 3.9mph /  6.3km/h 6mph /  9.7km/h 71.4% 0.00in /  0mm W/m2
00:14 62 °F /  16.7 °C 52.6 °F /  11.4 °C 30.06in /  1017.8hPa NNW 4.2mph /  6.8km/h 8mph /  12.9km/h 71.6% 0.00in /  0mm W/m2
00:19 61.8 °F /  16.6 °C 52.8 °F /  11.6 °C 30.06in /  1017.8hPa NNW 4mph /  6.4km/h 8mph /  12.9km/h 72.4% 0.00in /  0mm W/m2
00:24 61.5 °F /  16.4 °C 52.3 °F /  11.3 °C 30.06in /  1017.8hPa NNW 4.3mph /  6.9km/h 8mph /  12.9km/h 71.9% 0.00in /  0mm W/m2
00:29 61.5 °F /  16.4 °C 52.2 °F /  11.2 °C 30.06in /  1017.8hPa NNW 4.7mph /  7.6km/h 8mph /  12.9km/h 71.8% 0.00in /  0mm W/m2
00:34 61.4 °F /  16.3 °C 51.9 °F /  11.1 °C 30.06in /  1017.8hPa NNW 6.2mph /  10km/h 10mph /  16.1km/h 71% 0.00in /  0mm W/m2
00:39 61.5 °F /  16.4 °C 51.5 °F /  10.8 °C 30.06in /  1017.8hPa NNW 5.9mph /  9.5km/h 10mph /  16.1km/h 69.6% 0.00in /  0mm W/m2
00:44 61.5 °F /  16.4 °C 51.4 °F /  10.8 °C 30.06in /  1017.8hPa NNW 4.8mph /  7.7km/h 8mph /  12.9km/h 69.4% 0.00in /  0mm W/m2
00:49 61.5 °F /  16.4 °C 51.4 °F /  10.8 °C 30.06in /  1017.8hPa NNW 4.5mph /  7.2km/h 10mph /  16.1km/h 69.5% 0.00in /  0mm W/m2
00:54 61.5 °F /  16.4 °C 51.4 °F /  10.8 °C 30.06in /  1017.8hPa NNW 4.1mph /  6.6km/h 6mph /  9.7km/h 69.6% 0.00in /  0mm W/m2
00:59 61.3 °F /  16.3 °C 51.4 °F /  10.8 °C 30.06in /  1017.8hPa NNW 3.8mph /  6.1km/h 8mph /  12.9km/h 69.9% 0.00in /  0mm W/m2
01:04 61.2 °F /  16.2 °C 51.3 °F /  10.7 °C 30.06in /  1017.8hPa NNW 3.7mph /  6km/h 8mph /  12.9km/h 69.9% 0.00in /  0mm W/m2
01:09 61.2 °F /  16.2 °C 51.5 °F /  10.8 °C 30.06in /  1017.8hPa NNW 3.1mph /  5km/h 4mph /  6.4km/h 70.8% 0.00in /  0mm W/m2
01:14 61 °F /  16.1 °C 51.4 °F /  10.8 °C 30.06in /  1017.8hPa NNW 3.3mph /  5.3km/h 8mph /  12.9km/h 70.8% 0.00in /  0mm W/m2
01:19 60.7 °F /  15.9 °C 51.5 °F /  10.8 °C 30.06in /  1017.8hPa NNW 3.2mph /  5.1km/h 5mph /  8km/h 71.5% 0.00in /  0mm W/m2
01:24 60.6 °F /  15.9 °C 51.4 °F /  10.8 °C 30.06in /  1017.8hPa NNW 3.5mph /  5.6km/h 6mph /  9.7km/h 71.7% 0.00in /  0mm W/m2
01:29 60.4 °F /  15.8 °C 51.3 °F /  10.7 °C 30.06in /  1017.8hPa NNW 4mph /  6.4km/h 6mph /  9.7km/h 71.7% 0.00in /  0mm W/m2
01:34 60.4 °F /  15.8 °C 51.4 °F /  10.8 °C 30.06in /  1017.8hPa NNW 3.4mph /  5.5km/h 6mph /  9.7km/h 71.8% 0.00in /  0mm W/m2
01:39 60.4 °F /  15.8 °C 51.5 °F /  10.8 °C 30.06in /  1017.8hPa NNW 3.2mph /  5.1km/h 6mph /  9.7km/h 72.3% 0.00in /  0mm W/m2
01:44 60.2 °F /  15.7 °C 51.3 °F /  10.7 °C 30.06in /  1017.8hPa NNW 2.9mph /  4.7km/h 6mph /  9.7km/h 72.1% 0.00in /  0mm W/m2
01:49 60.1 °F /  15.6 °C 51.4 °F /  10.8 °C 30.06in /  1017.8hPa NNW 2.5mph /  4km/h 5mph /  8km/h 72.9% 0.00in /  0mm W/m2
01:54 59.8 °F /  15.4 °C 51.2 °F /  10.7 °C 30.06in /  1017.8hPa NNW 2.4mph /  3.9km/h 4mph /  6.4km/h 73% 0.00in /  0mm W/m2
01:59 59.7 °F /  15.4 °C 51.3 °F /  10.7 °C 30.06in /  1017.8hPa NW 2.6mph /  4.2km/h 5mph /  8km/h 73.8% 0.00in /  0mm W/m2
02:04 59.7 °F /  15.4 °C 51.2 °F /  10.7 °C 30.06in /  1017.8hPa NW 3.7mph /  6km/h 8mph /  12.9km/h 73.4% 0.00in /  0mm W/m2
02:09 59.5 °F /  15.3 °C 50.9 °F /  10.5 °C 30.06in /  1017.8hPa NNW 4mph /  6.4km/h 8mph /  12.9km/h 73% 0.00in /  0mm W/m2
02:14 59.5 °F /  15.3 °C 50.8 °F /  10.4 °C 30.06in /  1017.8hPa NW 3.6mph /  5.8km/h 8mph /  12.9km/h 72.7% 0.00in /  0mm W/m2
02:19 59.5 °F /  15.3 °C 50.7 °F /  10.4 °C 30.06in /  1017.8hPa NW 3.5mph /  5.6km/h 8mph /  12.9km/h 72.5% 0.00in /  0mm W/m2
02:24 59.4 °F /  15.2 °C 50.7 °F /  10.4 °C 30.06in /  1017.8hPa NW 3.1mph /  5km/h 8mph /  12.9km/h 73% 0.00in /  0mm W/m2
02:29 59.4 °F /  15.2 °C 50.8 °F /  10.4 °C 30.06in /  1017.8hPa NW 2.7mph /  4.3km/h 8mph /  12.9km/h 73.2% 0.00in /  0mm W/m2
02:34 59.2 °F /  15.1 °C 50.8 °F /  10.4 °C 30.06in /  1017.8hPa NW 3.3mph /  5.3km/h 6mph /  9.7km/h 73.8% 0.00in /  0mm W/m2
02:39 59 °F /  15 °C 50.6 °F /  10.3 °C 30.06in /  1017.8hPa NNW 3.2mph /  5.1km/h 5mph /  8km/h 73.6% 0.00in /  0mm W/m2
02:44 58.8 °F /  14.9 °C 50.6 °F /  10.3 °C 30.06in /  1017.8hPa NW 3.1mph /  5km/h 7mph /  11.3km/h 74.4% 0.00in /  0mm W/m2
02:49 58.5 °F /  14.7 °C 50.7 °F /  10.4 °C 30.06in /  1017.8hPa NW 2.5mph /  4km/h 7mph /  11.3km/h 75.2% 0.01in /  0.25mm W/m2
02:54 58.4 °F /  14.7 °C 50.8 °F /  10.4 °C 30.06in /  1017.8hPa NW 2.2mph /  3.5km/h 6mph /  9.7km/h 76.2% 0.01in /  0.25mm W/m2
02:59 58.1 °F /  14.5 °C 50.9 °F /  10.5 °C 30.06in /  1017.8hPa NW 1.9mph /  3.1km/h 6mph /  9.7km/h 77% 0.02in /  0.51mm W/m2
03:04 57.8 °F /  14.3 °C 50.6 °F /  10.3 °C 30.06in /  1017.8hPa NW 2.4mph /  3.9km/h 4mph /  6.4km/h 77.1% 0.02in /  0.51mm W/m2
03:09 57.6 °F /  14.2 °C 50.1 °F /  10.1 °C 30.06in /  1017.8hPa NNW 2.9mph /  4.7km/h 5mph /  8km/h 76.2% 0.02in /  0.51mm W/m2
03:14 57.4 °F /  14.1 °C 50 °F /  10 °C 30.06in /  1017.8hPa NNW 3.1mph /  5km/h 5mph /  8km/h 76.4% 0.03in /  0.76mm W/m2
03:19 57.3 °F /  14.1 °C 49.8 °F /  9.9 °C 30.06in /  1017.8hPa NW 2.6mph /  4.2km/h 5mph /  8km/h 76.4% 0.03in /  0.76mm W/m2
03:24 57.1 °F /  13.9 °C 49.7 °F /  9.8 °C 30.07in /  1018.2hPa NNW 2.7mph /  4.3km/h 5mph /  8km/h 76.4% 0.03in /  0.76mm W/m2
03:29 57 °F /  13.9 °C 49.4 °F /  9.7 °C 30.07in /  1018.2hPa NNW 3.6mph /  5.8km/h 5mph /  8km/h 75.8% 0.03in /  0.76mm W/m2
03:34 57 °F /  13.9 °C 49.4 °F /  9.7 °C 30.07in /  1018.2hPa NW 3.5mph /  5.6km/h 5mph /  8km/h 75.9% 0.03in /  0.76mm W/m2
03:39 56.9 °F /  13.8 °C 49.2 °F /  9.6 °C 30.07in /  1018.2hPa NNW 3mph /  4.8km/h 5mph /  8km/h 75.5% 0.03in /  0.76mm W/m2
03:44 56.8 °F /  13.8 °C 49.1 °F /  9.5 °C 30.07in /  1018.2hPa NNW 2.7mph /  4.3km/h 5mph /  8km/h 75.4% 0.03in /  0.76mm W/m2
03:49 56.8 °F /  13.8 °C 49.2 °F /  9.6 °C 30.07in /  1018.2hPa NNW 2.4mph /  3.9km/h 5mph /  8km/h 75.8% 0.03in /  0.76mm W/m2
03:54 56.7 °F /  13.7 °C 48.8 °F /  9.3 °C 30.08in /  1018.5hPa NNW 3.1mph /  5km/h 6mph /  9.7km/h 75.2% 0.02in /  0.51mm W/m2
03:59 56.7 °F /  13.7 °C 48.9 °F /  9.4 °C 30.08in /  1018.5hPa NNW 2.7mph /  4.3km/h 5mph /  8km/h 75.4% 0.02in /  0.51mm W/m2
04:04 56.7 °F /  13.7 °C 48.8 °F /  9.3 °C 30.08in /  1018.5hPa NNW 3.1mph /  5km/h 6mph /  9.7km/h 75.3% 0.02in /  0.51mm W/m2
04:09 56.7 °F /  13.7 °C 48.9 °F /  9.4 °C 30.08in /  1018.5hPa NNW 2.6mph /  4.2km/h 4mph /  6.4km/h 75.5% 0.01in /  0.25mm W/m2
04:14 56.5 °F /  13.6 °C 48.8 °F /  9.3 °C 30.08in /  1018.5hPa NNW 2.5mph /  4km/h 5mph /  8km/h 75.6% 0.01in /  0.25mm W/m2
04:19 56.5 °F /  13.6 °C 48.8 °F /  9.3 °C 30.08in /  1018.5hPa NNW 2.6mph /  4.2km/h 5mph /  8km/h 75.3% 0.00in /  0mm W/m2
04:24 56.5 °F /  13.6 °C 49.1 °F /  9.5 °C 30.08in /  1018.5hPa NW 2.7mph /  4.3km/h 4mph /  6.4km/h 76.5% 0.00in /  0mm W/m2
04:29 56.5 °F /  13.6 °C 49.1 °F /  9.5 °C 30.08in /  1018.5hPa NNW 3mph /  4.8km/h 5mph /  8km/h 76.5% 0.00in /  0mm W/m2
04:34 56.5 °F /  13.6 °C 49.3 °F /  9.6 °C 30.08in /  1018.5hPa NNW 2.7mph /  4.3km/h 5mph /  8km/h 77% 0.00in /  0mm W/m2
04:39 56.2 °F /  13.4 °C 49.2 °F /  9.6 °C 30.07in /  1018.2hPa NNW 2.5mph /  4km/h 4mph /  6.4km/h 77.5% 0.00in /  0mm W/m2
04:44 56.1 °F /  13.4 °C 49.3 °F /  9.6 °C 30.08in /  1018.5hPa NNW 3.1mph /  5km/h 5mph /  8km/h 78.1% 0.00in /  0mm W/m2
04:49 56.1 °F /  13.4 °C 49.3 °F /  9.6 °C 30.08in /  1018.5hPa NW 3.1mph /  5km/h 5mph /  8km/h 78.1% 0.00in /  0mm W/m2
04:54 56.1 °F /  13.4 °C 49.4 °F /  9.7 °C 30.08in /  1018.5hPa NW 2.7mph /  4.3km/h 5mph /  8km/h 78.3% 0.00in /  0mm W/m2
04:59 55.9 °F /  13.3 °C 49.4 °F /  9.7 °C 30.08in /  1018.5hPa NNW 2.7mph /  4.3km/h 4mph /  6.4km/h 78.7% 0.00in /  0mm W/m2
05:04 55.9 °F /  13.3 °C 49.5 °F /  9.7 °C 30.08in /  1018.5hPa NNW 2.8mph /  4.5km/h 5mph /  8km/h 79% 0.00in /  0mm W/m2
05:09 55.9 °F /  13.3 °C 49.6 °F /  9.8 °C 30.08in /  1018.5hPa NW 2.6mph /  4.2km/h 4mph /  6.4km/h 79.2% 0.00in /  0mm W/m2
05:14 55.9 °F /  13.3 °C 49.5 °F /  9.7 °C 30.09in /  1018.8hPa NNW 3.5mph /  5.6km/h 5mph /  8km/h 79% 0.00in /  0mm W/m2
05:19 55.9 °F /  13.3 °C 49.8 °F /  9.9 °C 30.09in /  1018.8hPa NW 2.6mph /  4.2km/h 5mph /  8km/h 80% 0.00in /  0mm W/m2
05:24 55.9 °F /  13.3 °C 49.7 °F /  9.8 °C 30.09in /  1018.8hPa NW 3.2mph /  5.1km/h 5mph /  8km/h 79.7% 0.00in /  0mm W/m2
05:29 55.9 °F /  13.3 °C 49.8 °F /  9.9 °C 30.09in /  1018.8hPa NW 2.6mph /  4.2km/h 4mph /  6.4km/h 80% 0.00in /  0mm W/m2
05:34 55.9 °F /  13.3 °C 49.8 °F /  9.9 °C 30.09in /  1018.8hPa NW 2.8mph /  4.5km/h 6mph /  9.7km/h 79.8% 0.00in /  0mm W/m2
05:39 55.9 °F /  13.3 °C 49.7 °F /  9.8 °C 30.09in /  1018.8hPa NNW 3.6mph /  5.8km/h 6mph /  9.7km/h 79.7% 0.00in /  0mm W/m2
05:44 55.9 °F /  13.3 °C 49.7 °F /  9.8 °C 30.09in /  1018.8hPa NNW 3.5mph /  5.6km/h 6mph /  9.7km/h 79.8% 0.00in /  0mm W/m2
05:49 55.9 °F /  13.3 °C 49.7 °F /  9.8 °C 30.10in /  1019.2hPa NNW 2.8mph /  4.5km/h 6mph /  9.7km/h 79.8% 0.00in /  0mm W/m2
05:54 55.9 °F /  13.3 °C 50 °F /  10 °C 30.10in /  1019.2hPa NW 2.8mph /  4.5km/h 4mph /  6.4km/h 80.6% 0.00in /  0mm W/m2
05:59 55.9 °F /  13.3 °C 50.1 °F /  10.1 °C 30.10in /  1019.2hPa NW 2.8mph /  4.5km/h 5mph /  8km/h 80.7% 0.00in /  0mm W/m2
06:04 56.1 °F /  13.4 °C 50.2 °F /  10.1 °C 30.10in /  1019.2hPa NW 2.8mph /  4.5km/h 5mph /  8km/h 80.6% 0.00in /  0mm W/m2
06:09 56.1 °F /  13.4 °C 50.2 °F /  10.1 °C 30.11in /  1019.5hPa NNW 2.9mph /  4.7km/h 4mph /  6.4km/h 80.5% 0.00in /  0mm W/m2
06:14 56 °F /  13.3 °C 50.2 °F /  10.1 °C 30.11in /  1019.5hPa NNW 2.9mph /  4.7km/h 5mph /  8km/h 80.7% 0.00in /  0mm W/m2
06:19 56 °F /  13.3 °C 50.1 °F /  10.1 °C 30.11in /  1019.5hPa NNW 3mph /  4.8km/h 5mph /  8km/h 80.5% 0.00in /  0mm W/m2
06:24 56 °F /  13.3 °C 50.2 °F /  10.1 °C 30.11in /  1019.5hPa NNW 3.1mph /  5km/h 5mph /  8km/h 80.8% 0.00in /  0mm W/m2
06:29 56.1 °F /  13.4 °C 50.1 °F /  10.1 °C 30.11in /  1019.5hPa NNW 2.9mph /  4.7km/h 5mph /  8km/h 80.4% 0.00in /  0mm W/m2
06:34 56.1 °F /  13.4 °C 50.1 °F /  10.1 °C 30.11in /  1019.5hPa NNW 2.8mph /  4.5km/h 5mph /  8km/h 80.2% 0.00in /  0mm W/m2
06:39 56.1 °F /  13.4 °C 49.9 °F /  9.9 °C 30.11in /  1019.5hPa NNW 3mph /  4.8km/h 5mph /  8km/h 79.7% 0.00in /  0mm W/m2
06:44 56.1 °F /  13.4 °C 49.9 °F /  9.9 °C 30.11in /  1019.5hPa NNW 2.8mph /  4.5km/h 4mph /  6.4km/h 79.6% 0.00in /  0mm W/m2
06:49 56.1 °F /  13.4 °C 50 °F /  10 °C 30.11in /  1019.5hPa NW 2.9mph /  4.7km/h 5mph /  8km/h 80% 0.00in /  0mm W/m2
06:54 56.1 °F /  13.4 °C 49.8 °F /  9.9 °C 30.11in /  1019.5hPa NNW 2.9mph /  4.7km/h 5mph /  8km/h 79.5% 0.00in /  0mm W/m2
06:59 56.1 °F /  13.4 °C 49.8 °F /  9.9 °C 30.11in /  1019.5hPa NNW 3.4mph /  5.5km/h 6mph /  9.7km/h 79.5% 0.00in /  0mm W/m2
07:04 56.3 °F /  13.5 °C 49.8 °F /  9.9 °C 30.11in /  1019.5hPa NNW 3.8mph /  6.1km/h 6mph /  9.7km/h 78.9% 0.00in /  0mm W/m2
07:09 56.6 °F /  13.7 °C 49.6 °F /  9.8 °C 30.12in /  1019.9hPa NNW 4.2mph /  6.8km/h 8mph /  12.9km/h 77.5% 0.00in /  0mm W/m2
07:14 56.9 °F /  13.8 °C 49.4 °F /  9.7 °C 30.12in /  1019.9hPa NNW 5.4mph /  8.7km/h 9mph /  14.5km/h 76% 0.00in /  0mm W/m2
07:19 57.5 °F /  14.2 °C 49.5 °F /  9.7 °C 30.12in /  1019.9hPa NNW 5.4mph /  8.7km/h 9mph /  14.5km/h 74.6% 0.00in /  0mm W/m2
07:24 57.8 °F /  14.3 °C 49.7 °F /  9.8 °C 30.13in /  1020.2hPa NNW 4.6mph /  7.4km/h 8mph /  12.9km/h 74.3% 0.00in /  0mm W/m2
07:29 58.2 °F /  14.6 °C 49.5 °F /  9.7 °C 30.13in /  1020.2hPa NNW 4.5mph /  7.2km/h 9mph /  14.5km/h 73.1% 0.00in /  0mm W/m2
07:34 58.4 °F /  14.7 °C 49.6 °F /  9.8 °C 30.13in /  1020.2hPa NNW 3.8mph /  6.1km/h 6mph /  9.7km/h 72.9% 0.00in /  0mm W/m2
07:39 58.5 °F /  14.7 °C 49.8 °F /  9.9 °C 30.13in /  1020.2hPa NNW 5.3mph /  8.5km/h 9mph /  14.5km/h 72.8% 0.00in /  0mm W/m2
07:44 58.7 °F /  14.8 °C 49.9 °F /  9.9 °C 30.13in /  1020.2hPa NNW 6.1mph /  9.8km/h 10mph /  16.1km/h 72.4% 0.00in /  0mm W/m2
07:49 59.1 °F /  15.1 °C 50.2 °F /  10.1 °C 30.14in /  1020.5hPa NNW 4.9mph /  7.9km/h 9mph /  14.5km/h 72.4% 0.00in /  0mm W/m2
07:54 59.4 °F /  15.2 °C 50.5 °F /  10.3 °C 30.14in /  1020.5hPa NNW 4.9mph /  7.9km/h 10mph /  16.1km/h 72.4% 0.00in /  0mm W/m2
07:59 59.7 °F /  15.4 °C 50.8 °F /  10.4 °C 30.14in /  1020.5hPa NNW 4.4mph /  7.1km/h 9mph /  14.5km/h 72.1% 0.00in /  0mm W/m2
08:04 60.1 °F /  15.6 °C 50.6 °F /  10.3 °C 30.14in /  1020.5hPa NNW 5.9mph /  9.5km/h 10mph /  16.1km/h 70.8% 0.00in /  0mm W/m2
08:09 60.4 °F /  15.8 °C 50.4 °F /  10.2 °C 30.14in /  1020.5hPa NNW 6.6mph /  10.6km/h 11mph /  17.7km/h 69.4% 0.00in /  0mm W/m2
08:14 60.8 °F /  16 °C 50.7 °F /  10.4 °C 30.16in /  1021.2hPa NNW 4.6mph /  7.4km/h 11mph /  17.7km/h 69.4% 0.00in /  0mm W/m2
08:19 61 °F /  16.1 °C 50.5 °F /  10.3 °C 30.15in /  1020.9hPa NNW 5.5mph /  8.9km/h 11mph /  17.7km/h 68.4% 0.00in /  0mm W/m2
08:24 61.3 °F /  16.3 °C 50.5 °F /  10.3 °C 30.15in /  1020.9hPa NNW 6mph /  9.7km/h 11mph /  17.7km/h 67.8% 0.00in /  0mm W/m2
08:29 61.6 °F /  16.4 °C 51.2 °F /  10.7 °C 30.15in /  1020.9hPa NNW 4.5mph /  7.2km/h 9mph /  14.5km/h 68.5% 0.00in /  0mm W/m2
08:34 61.9 °F /  16.6 °C 51.2 °F /  10.7 °C 30.15in /  1020.9hPa NNW 4.9mph /  7.9km/h 10mph /  16.1km/h 68.2% 0.00in /  0mm W/m2
08:39 62.1 °F /  16.7 °C 51 °F /  10.6 °C 30.15in /  1020.9hPa NNW 4.4mph /  7.1km/h 9mph /  14.5km/h 67% 0.00in /  0mm W/m2
08:44 62.5 °F /  16.9 °C 51.7 °F /  10.9 °C 30.15in /  1020.9hPa NNW 4.4mph /  7.1km/h 10mph /  16.1km/h 67.6% 0.00in /  0mm W/m2
08:49 63 °F /  17.2 °C 51.7 °F /  10.9 °C 30.16in /  1021.2hPa NNW 3.3mph /  5.3km/h 8mph /  12.9km/h 66.6% 0.00in /  0mm W/m2
08:54 63.3 °F /  17.4 °C 51.8 °F /  11 °C 30.16in /  1021.2hPa NNW 3.8mph /  6.1km/h 6mph /  9.7km/h 65.9% 0.00in /  0mm W/m2
08:59 63.7 °F /  17.6 °C 51.6 °F /  10.9 °C 30.16in /  1021.2hPa North 3mph /  4.8km/h 8mph /  12.9km/h 64.8% 0.00in /  0mm W/m2
09:04 63.9 °F /  17.7 °C 51.2 °F /  10.7 °C 30.16in /  1021.2hPa NW 3.7mph /  6km/h 8mph /  12.9km/h 63.3% 0.00in /  0mm W/m2
09:09 64.2 °F /  17.9 °C 51.4 °F /  10.8 °C 30.16in /  1021.2hPa NNW 5.1mph /  8.2km/h 8mph /  12.9km/h 62.9% 0.00in /  0mm W/m2
09:14 64.7 °F /  18.2 °C 51.1 °F /  10.6 °C 30.16in /  1021.2hPa NNW 6.4mph /  10.3km/h 13mph /  20.9km/h 61.3% 0.00in /  0mm W/m2
09:19 65.1 °F /  18.4 °C 51.6 °F /  10.9 °C 30.16in /  1021.2hPa NNW 6.3mph /  10.1km/h 13mph /  20.9km/h 61.6% 0.00in /  0mm W/m2
09:24 65.7 °F /  18.7 °C 51.6 °F /  10.9 °C 30.16in /  1021.2hPa NNW 7.6mph /  12.2km/h 13mph /  20.9km/h 60.4% 0.00in /  0mm W/m2
09:29 65.8 °F /  18.8 °C 49.3 °F /  9.6 °C 30.16in /  1021.2hPa NNW 8.9mph /  14.3km/h 15mph /  24.1km/h 55.3% 0.00in /  0mm W/m2
09:34 66 °F /  18.9 °C 50 °F /  10 °C 30.16in /  1021.2hPa NNW 6.9mph /  11.1km/h 15mph /  24.1km/h 56.3% 0.00in /  0mm W/m2
09:39 66.6 °F /  19.2 °C 51.4 °F /  10.8 °C 30.16in /  1021.2hPa NNW 5.7mph /  9.2km/h 15mph /  24.1km/h 58% 0.00in /  0mm W/m2
09:44 66.9 °F /  19.4 °C 51 °F /  10.6 °C 30.16in /  1021.2hPa NNW 7.8mph /  12.6km/h 12mph /  19.3km/h 56.8% 0.00in /  0mm W/m2
09:49 67.1 °F /  19.5 °C 50.8 °F /  10.4 °C 30.17in /  1021.6hPa NNW 5.3mph /  8.5km/h 10mph /  16.1km/h 55.8% 0.00in /  0mm W/m2
09:54 67.4 °F /  19.7 °C 51.5 °F /  10.8 °C 30.17in /  1021.6hPa NNW 6.8mph /  10.9km/h 12mph /  19.3km/h 56.8% 0.00in /  0mm W/m2
09:59 67.6 °F /  19.8 °C 52.2 °F /  11.2 °C 30.17in /  1021.6hPa NNW 6.5mph /  10.5km/h 11mph /  17.7km/h 57.7% 0.00in /  0mm W/m2
10:04 67.9 °F /  19.9 °C 52.5 °F /  11.4 °C 30.17in /  1021.6hPa NNW 6.3mph /  10.1km/h 13mph /  20.9km/h 57.7% 0.00in /  0mm W/m2
10:09 68.3 °F /  20.2 °C 53.1 °F /  11.7 °C 30.17in /  1021.6hPa North 4.2mph /  6.8km/h 8mph /  12.9km/h 58.3% 0.00in /  0mm W/m2
10:14 68.4 °F /  20.2 °C 52.3 °F /  11.3 °C 30.17in /  1021.6hPa North 4.6mph /  7.4km/h 13mph /  20.9km/h 56.4% 0.00in /  0mm W/m2
10:19 68.5 °F /  20.3 °C 53.3 °F /  11.8 °C 30.17in /  1021.6hPa NNW 5.2mph /  8.4km/h 9mph /  14.5km/h 58.3% 0.00in /  0mm W/m2
10:24 68.7 °F /  20.4 °C 51.4 °F /  10.8 °C 30.17in /  1021.6hPa NNW 6.8mph /  10.9km/h 11mph /  17.7km/h 54% 0.00in /  0mm W/m2
10:29 68.7 °F /  20.4 °C 51.4 °F /  10.8 °C 30.17in /  1021.6hPa NNW 5.5mph /  8.9km/h 10mph /  16.1km/h 53.9% 0.00in /  0mm W/m2
10:34 69 °F /  20.6 °C 52.5 °F /  11.4 °C 30.16in /  1021.2hPa NNW 5.3mph /  8.5km/h 11mph /  17.7km/h 55.6% 0.00in /  0mm W/m2
10:39 69.2 °F /  20.7 °C 52.3 °F /  11.3 °C 30.16in /  1021.2hPa NNW 4.4mph /  7.1km/h 11mph /  17.7km/h 55% 0.00in /  0mm W/m2
10:44 69.4 °F /  20.8 °C 53.2 °F /  11.8 °C 30.16in /  1021.2hPa North 5.3mph /  8.5km/h 9mph /  14.5km/h 56.3% 0.00in /  0mm W/m2
10:49 69.6 °F /  20.9 °C 53.9 °F /  12.2 °C 30.16in /  1021.2hPa North 4mph /  6.4km/h 9mph /  14.5km/h 57.4% 0.00in /  0mm W/m2
10:54 69.9 °F /  21.1 °C 53.4 °F /  11.9 °C 30.16in /  1021.2hPa NNW 4.7mph /  7.6km/h 9mph /  14.5km/h 55.8% 0.00in /  0mm W/m2
10:59 70.1 °F /  21.2 °C 53.9 °F /  12.2 °C 30.16in /  1021.2hPa North 4.1mph /  6.6km/h 9mph /  14.5km/h 56.6% 0.00in /  0mm W/m2
11:04 70.2 °F /  21.2 °C 52.7 °F /  11.5 °C 30.16in /  1021.2hPa NNW 6.7mph /  10.8km/h 11mph /  17.7km/h 53.8% 0.00in /  0mm W/m2
11:09 70.3 °F /  21.3 °C 51.3 °F /  10.7 °C 30.16in /  1021.2hPa NNW 7.1mph /  11.4km/h 13mph /  20.9km/h 50.9% 0.00in /  0mm W/m2
11:14 70.3 °F /  21.3 °C 50.5 °F /  10.3 °C 30.16in /  1021.2hPa NNW 8.2mph /  13.2km/h 12mph /  19.3km/h 49.3% 0.00in /  0mm W/m2
11:19 70.5 °F /  21.4 °C 50.3 °F /  10.2 °C 30.16in /  1021.2hPa NNW 6.9mph /  11.1km/h 13mph /  20.9km/h 48.8% 0.00in /  0mm W/m2
11:24 70.6 °F /  21.4 °C 49.7 °F /  9.8 °C 30.16in /  1021.2hPa NNW 6.9mph /  11.1km/h 11mph /  17.7km/h 47.7% 0.00in /  0mm W/m2
11:29 70.9 °F /  21.6 °C 51.1 °F /  10.6 °C 30.16in /  1021.2hPa NNW 5.4mph /  8.7km/h 12mph /  19.3km/h 49.7% 0.00in /  0mm W/m2
11:34 71.1 °F /  21.7 °C 50.9 °F /  10.5 °C 30.15in /  1020.9hPa NNW 5.7mph /  9.2km/h 11mph /  17.7km/h 48.8% 0.00in /  0mm W/m2
11:39 71.2 °F /  21.8 °C 51.9 °F /  11.1 °C 30.15in /  1020.9hPa North 5mph /  8km/h 9mph /  14.5km/h 50.6% 0.00in /  0mm W/m2
11:44 71.2 °F /  21.8 °C 51.3 °F /  10.7 °C 30.15in /  1020.9hPa NNW 6.4mph /  10.3km/h 11mph /  17.7km/h 49.4% 0.00in /  0mm W/m2
11:49 71.4 °F /  21.9 °C 52.5 °F /  11.4 °C 30.15in /  1020.9hPa North 4.5mph /  7.2km/h 11mph /  17.7km/h 51.2% 0.00in /  0mm W/m2
11:54 71.9 °F /  22.2 °C 52.9 °F /  11.6 °C 30.15in /  1020.9hPa North 4.4mph /  7.1km/h 11mph /  17.7km/h 51.2% 0.00in /  0mm W/m2
11:59 72 °F /  22.2 °C 52.3 °F /  11.3 °C 30.16in /  1021.2hPa North 3.3mph /  5.3km/h 11mph /  17.7km/h 49.8% 0.00in /  0mm W/m2
12:04 72.2 °F /  22.3 °C 52.1 °F /  11.2 °C 30.15in /  1020.9hPa NW 5.2mph /  8.4km/h 9mph /  14.5km/h 49.2% 0.00in /  0mm W/m2
12:09 72.4 °F /  22.4 °C 52 °F /  11.1 °C 30.15in /  1020.9hPa North 3.8mph /  6.1km/h 9mph /  14.5km/h 48.8% 0.00in /  0mm W/m2
12:14 72.8 °F /  22.7 °C 53.5 °F /  11.9 °C 30.15in /  1020.9hPa NE 3mph /  4.8km/h 10mph /  16.1km/h 51% 0.00in /  0mm W/m2
12:19 73.2 °F /  22.9 °C 52.8 °F /  11.6 °C 30.15in /  1020.9hPa NNW 4.6mph /  7.4km/h 9mph /  14.5km/h 48.9% 0.00in /  0mm W/m2
12:24 73.7 °F /  23.2 °C 51.7 °F /  10.9 °C 30.14in /  1020.5hPa NNW 5.3mph /  8.5km/h 11mph /  17.7km/h 46.2% 0.00in /  0mm W/m2
12:29 73.9 °F /  23.3 °C 48.7 °F /  9.3 °C 30.14in /  1020.5hPa NNW 5.9mph /  9.5km/h 11mph /  17.7km/h 41% 0.00in /  0mm W/m2
12:34 74.1 °F /  23.4 °C 49.5 °F /  9.7 °C 30.14in /  1020.5hPa NNW 4.3mph /  6.9km/h 11mph /  17.7km/h 41.9% 0.00in /  0mm W/m2
12:39 74.6 °F /  23.7 °C 50.7 °F /  10.4 °C 30.14in /  1020.5hPa NW 6.3mph /  10.1km/h 12mph /  19.3km/h 43.2% 0.00in /  0mm W/m2
12:44 74.7 °F /  23.7 °C 49.2 °F /  9.6 °C 30.13in /  1020.2hPa NNW 5.1mph /  8.2km/h 12mph /  19.3km/h 40.9% 0.00in /  0mm W/m2
12:49 74.8 °F /  23.8 °C 50.5 °F /  10.3 °C 30.13in /  1020.2hPa North 3.5mph /  5.6km/h 12mph /  19.3km/h 42.5% 0.00in /  0mm W/m2
12:54 75 °F /  23.9 °C 50.7 °F /  10.4 °C 30.13in /  1020.2hPa NNW 3mph /  4.8km/h 12mph /  19.3km/h 42.6% 0.00in /  0mm W/m2
12:59 75.3 °F /  24.1 °C 49.1 °F /  9.5 °C 30.13in /  1020.2hPa NNW 3.9mph /  6.3km/h 8mph /  12.9km/h 39.7% 0.00in /  0mm W/m2
13:04 75.7 °F /  24.3 °C 51 °F /  10.6 °C 30.13in /  1020.2hPa NNW 4.6mph /  7.4km/h 11mph /  17.7km/h 42.3% 0.00in /  0mm W/m2
13:09 75.8 °F /  24.3 °C 50.7 °F /  10.4 °C 30.12in /  1019.9hPa North 3.5mph /  5.6km/h 9mph /  14.5km/h 41.3% 0.00in /  0mm W/m2
13:14 76.1 °F /  24.5 °C 50.7 °F /  10.4 °C 30.12in /  1019.9hPa NNW 3.2mph /  5.1km/h 11mph /  17.7km/h 41.1% 0.00in /  0mm W/m2
13:19 76.4 °F /  24.7 °C 49.5 °F /  9.7 °C 30.12in /  1019.9hPa NNW 4.6mph /  7.4km/h 9mph /  14.5km/h 39% 0.00in /  0mm W/m2
13:24 76.5 °F /  24.7 °C 52.6 °F /  11.4 °C 30.12in /  1019.9hPa North 3mph /  4.8km/h 9mph /  14.5km/h 43.5% 0.00in /  0mm W/m2
13:29 76.6 °F /  24.8 °C 52.7 °F /  11.5 °C 30.12in /  1019.9hPa NNE 4.3mph /  6.9km/h 9mph /  14.5km/h 43.5% 0.00in /  0mm W/m2
13:34 76.8 °F /  24.9 °C 49.7 °F /  9.8 °C 30.12in /  1019.9hPa NNW 3.9mph /  6.3km/h 9mph /  14.5km/h 38.8% 0.00in /  0mm W/m2
13:39 76.8 °F /  24.9 °C 52.1 °F /  11.2 °C 30.12in /  1019.9hPa NNE 2.5mph /  4km/h 6mph /  9.7km/h 42.2% 0.00in /  0mm W/m2
13:44 77.2 °F /  25.1 °C 52.4 °F /  11.3 °C 30.11in /  1019.5hPa North 4mph /  6.4km/h 9mph /  14.5km/h 42.2% 0.00in /  0mm W/m2
13:49 76.9 °F /  24.9 °C 52.6 °F /  11.4 °C 30.12in /  1019.9hPa North 3.9mph /  6.3km/h 7mph /  11.3km/h 42.9% 0.00in /  0mm W/m2
13:54 76.6 °F /  24.8 °C 51.5 °F /  10.8 °C 30.11in /  1019.5hPa NNW 2mph /  3.2km/h 9mph /  14.5km/h 41.6% 0.00in /  0mm W/m2
13:59 77 °F /  25 °C 53.2 °F /  11.8 °C 30.11in /  1019.5hPa NNW 5.8mph /  9.3km/h 11mph /  17.7km/h 43.7% 0.00in /  0mm W/m2
14:04 77.1 °F /  25.1 °C 53 °F /  11.7 °C 30.11in /  1019.5hPa North 4.2mph /  6.8km/h 11mph /  17.7km/h 43.4% 0.00in /  0mm W/m2
14:09 77.1 °F /  25.1 °C 53.8 °F /  12.1 °C 30.11in /  1019.5hPa North 4.5mph /  7.2km/h 11mph /  17.7km/h 44.4% 0.00in /  0mm W/m2
14:14 77.4 °F /  25.2 °C 52.7 °F /  11.5 °C 30.11in /  1019.5hPa North 3.4mph /  5.5km/h 11mph /  17.7km/h 42.5% 0.00in /  0mm W/m2
14:19 77.5 °F /  25.3 °C 52.5 °F /  11.4 °C 30.11in /  1019.5hPa North 4.7mph /  7.6km/h 11mph /  17.7km/h 42% 0.00in /  0mm W/m2
14:24 77.5 °F /  25.3 °C 50.7 °F /  10.4 °C 30.11in /  1019.5hPa NNW 2.7mph /  4.3km/h 8mph /  12.9km/h 39.1% 0.00in /  0mm W/m2
14:29 77.8 °F /  25.4 °C 54.5 °F /  12.5 °C 30.11in /  1019.5hPa NE 3.8mph /  6.1km/h 11mph /  17.7km/h 44.6% 0.00in /  0mm W/m2
14:34 78.2 °F /  25.7 °C 53.5 °F /  11.9 °C 30.11in /  1019.5hPa North 4.8mph /  7.7km/h 9mph /  14.5km/h 42.4% 0.00in /  0mm W/m2
14:39 77.5 °F /  25.3 °C 50.8 °F /  10.4 °C 30.11in /  1019.5hPa NNW 4.1mph /  6.6km/h 10mph /  16.1km/h 39.3% 0.00in /  0mm W/m2
14:44 77.4 °F /  25.2 °C 50.7 °F /  10.4 °C 30.11in /  1019.5hPa NNW 4.9mph /  7.9km/h 9mph /  14.5km/h 39.4% 0.00in /  0mm W/m2
14:49 77.3 °F /  25.2 °C 53.5 °F /  11.9 °C 30.11in /  1019.5hPa North 2.6mph /  4.2km/h 9mph /  14.5km/h 43.9% 0.00in /  0mm W/m2
14:54 77.9 °F /  25.5 °C 53.6 °F /  12 °C 30.11in /  1019.5hPa NE 2.5mph /  4km/h 9mph /  14.5km/h 43.1% 0.00in /  0mm W/m2
14:59 78.7 °F /  25.9 °C 52.2 °F /  11.2 °C 30.11in /  1019.5hPa NNE 5.6mph /  9km/h 12mph /  19.3km/h 39.8% 0.00in /  0mm W/m2
15:04 78.9 °F /  26.1 °C 54.4 °F /  12.4 °C 30.11in /  1019.5hPa North 3.4mph /  5.5km/h 6mph /  9.7km/h 42.9% 0.00in /  0mm W/m2
15:09 78.4 °F /  25.8 °C 53.4 °F /  11.9 °C 30.11in /  1019.5hPa NNE 3.4mph /  5.5km/h 12mph /  19.3km/h 42.2% 0.00in /  0mm W/m2
15:14 78.5 °F /  25.8 °C 53.3 °F /  11.8 °C 30.11in /  1019.5hPa NNE 3.9mph /  6.3km/h 9mph /  14.5km/h 41.7% 0.00in /  0mm W/m2
15:19 78.3 °F /  25.7 °C 51.1 °F /  10.6 °C 30.11in /  1019.5hPa NW 4.1mph /  6.6km/h 8mph /  12.9km/h 38.7% 0.00in /  0mm W/m2
15:24 78.2 °F /  25.7 °C 54.7 °F /  12.6 °C 30.11in /  1019.5hPa NE 4.1mph /  6.6km/h 9mph /  14.5km/h 44.6% 0.00in /  0mm W/m2
15:29 78.4 °F /  25.8 °C 54.7 °F /  12.6 °C 30.11in /  1019.5hPa NNE 2.9mph /  4.7km/h 7mph /  11.3km/h 43.9% 0.00in /  0mm W/m2
15:34 78.8 °F /  26 °C 54.2 °F /  12.3 °C 30.11in /  1019.5hPa NNE 3.2mph /  5.1km/h 9mph /  14.5km/h 42.6% 0.00in /  0mm W/m2
15:39 78.5 °F /  25.8 °C 53.7 °F /  12.1 °C 30.11in /  1019.5hPa North 3.3mph /  5.3km/h 8mph /  12.9km/h 42.3% 0.00in /  0mm W/m2
15:44 78.2 °F /  25.7 °C 55.2 °F /  12.9 °C 30.11in /  1019.5hPa North 3.4mph /  5.5km/h 9mph /  14.5km/h 45.2% 0.00in /  0mm W/m2
15:49 77.9 °F /  25.5 °C 57.2 °F /  14 °C 30.11in /  1019.5hPa NE 2.6mph /  4.2km/h 8mph /  12.9km/h 48.9% 0.00in /  0mm W/m2
15:54 78.3 °F /  25.7 °C 56.2 °F /  13.4 °C 30.11in /  1019.5hPa NE 4.1mph /  6.6km/h 9mph /  14.5km/h 46.7% 0.00in /  0mm W/m2
15:59 78.6 °F /  25.9 °C 55.9 °F /  13.3 °C 30.11in /  1019.5hPa NE 4.5mph /  7.2km/h 9mph /  14.5km/h 45.5% 0.00in /  0mm W/m2
16:04 78.7 °F /  25.9 °C 55.8 °F /  13.2 °C 30.11in /  1019.5hPa NE 4.2mph /  6.8km/h 9mph /  14.5km/h 45.4% 0.00in /  0mm W/m2
16:09 78.5 °F /  25.8 °C 55.2 °F /  12.9 °C 30.11in /  1019.5hPa ENE 4.9mph /  7.9km/h 10mph /  16.1km/h 44.5% 0.00in /  0mm W/m2
16:14 78.2 °F /  25.7 °C 55.8 °F /  13.2 °C 30.12in /  1019.9hPa NE 4.3mph /  6.9km/h 10mph /  16.1km/h 46.1% 0.00in /  0mm W/m2
16:19 77.9 °F /  25.5 °C 55.2 °F /  12.9 °C 30.12in /  1019.9hPa NE 5.2mph /  8.4km/h 10mph /  16.1km/h 45.6% 0.00in /  0mm W/m2
16:24 77.5 °F /  25.3 °C 54.6 °F /  12.6 °C 30.12in /  1019.9hPa ENE 5.7mph /  9.2km/h 12mph /  19.3km/h 45.2% 0.00in /  0mm W/m2
16:29 77 °F /  25 °C 54.7 °F /  12.6 °C 30.12in /  1019.9hPa ENE 4.2mph /  6.8km/h 8mph /  12.9km/h 46.1% 0.00in /  0mm W/m2
16:34 76.5 °F /  24.7 °C 54.6 °F /  12.6 °C 30.12in /  1019.9hPa NE 6.5mph /  10.5km/h 12mph /  19.3km/h 46.7% 0.00in /  0mm W/m2
16:39 76 °F /  24.4 °C 56 °F /  13.3 °C 30.12in /  1019.9hPa NE 4.5mph /  7.2km/h 10mph /  16.1km/h 50% 0.00in /  0mm W/m2
16:44 75.4 °F /  24.1 °C 55.6 °F /  13.1 °C 30.12in /  1019.9hPa NE 4.5mph /  7.2km/h 12mph /  19.3km/h 50.3% 0.00in /  0mm W/m2
16:49 74.4 °F /  23.6 °C 56.1 °F /  13.4 °C 30.12in /  1019.9hPa NNE 4mph /  6.4km/h 10mph /  16.1km/h 52.8% 0.00in /  0mm W/m2
16:54 73.3 °F /  22.9 °C 55.9 °F /  13.3 °C 30.13in /  1020.2hPa NNE 4.1mph /  6.6km/h 12mph /  19.3km/h 54.4% 0.00in /  0mm W/m2
16:59 72.3 °F /  22.4 °C 55.3 °F /  12.9 °C 30.13in /  1020.2hPa NNE 3.4mph /  5.5km/h 8mph /  12.9km/h 55.2% 0.00in /  0mm W/m2
17:04 71.7 °F /  22.1 °C 56.2 °F /  13.4 °C 30.13in /  1020.2hPa NNE 2.9mph /  4.7km/h 6mph /  9.7km/h 58.2% 0.00in /  0mm W/m2
17:09 71.2 °F /  21.8 °C 56 °F /  13.3 °C 30.13in /  1020.2hPa NE 3.5mph /  5.6km/h 8mph /  12.9km/h 58.7% 0.00in /  0mm W/m2
17:14 70.7 °F /  21.5 °C 56.3 °F /  13.5 °C 30.13in /  1020.2hPa NNE 2.4mph /  3.9km/h 5mph /  8km/h 60.3% 0.00in /  0mm W/m2
17:19 70.3 °F /  21.3 °C 55.5 °F /  13.1 °C 30.13in /  1020.2hPa NE 3.4mph /  5.5km/h 7mph /  11.3km/h 59.3% 0.00in /  0mm W/m2
17:24 70.1 °F /  21.2 °C 54.6 °F /  12.6 °C 30.13in /  1020.2hPa NE 3.9mph /  6.3km/h 9mph /  14.5km/h 58.1% 0.00in /  0mm W/m2
17:29 69.6 °F /  20.9 °C 55.1 °F /  12.8 °C 30.13in /  1020.2hPa NNE 3.6mph /  5.8km/h 9mph /  14.5km/h 60.1% 0.00in /  0mm W/m2
17:34 69.3 °F /  20.7 °C 55.3 °F /  12.9 °C 30.14in /  1020.5hPa NNE 2.7mph /  4.3km/h 8mph /  12.9km/h 61% 0.00in /  0mm W/m2
17:39 69 °F /  20.6 °C 54.9 °F /  12.7 °C 30.14in /  1020.5hPa NE 3.6mph /  5.8km/h 9mph /  14.5km/h 60.8% 0.00in /  0mm W/m2
17:44 68.6 °F /  20.3 °C 55.1 °F /  12.8 °C 30.14in /  1020.5hPa NNE 2.7mph /  4.3km/h 8mph /  12.9km/h 62% 0.00in /  0mm W/m2
17:49 68.4 °F /  20.2 °C 55 °F /  12.8 °C 30.14in /  1020.5hPa NE 3mph /  4.8km/h 6mph /  9.7km/h 62.4% 0.00in /  0mm W/m2
17:54 68.1 °F /  20.1 °C 55 °F /  12.8 °C 30.14in /  1020.5hPa NE 2.1mph /  3.4km/h 8mph /  12.9km/h 63.1% 0.00in /  0mm W/m2
17:59 67.8 °F /  19.9 °C 55 °F /  12.8 °C 30.14in /  1020.5hPa NE 2.3mph /  3.7km/h 5mph /  8km/h 63.7% 0.00in /  0mm W/m2
18:04 67.7 °F /  19.8 °C 55.1 °F /  12.8 °C 30.14in /  1020.5hPa NE 2.5mph /  4km/h 6mph /  9.7km/h 64% 0.00in /  0mm W/m2
18:09 67.6 °F /  19.8 °C 55.1 °F /  12.8 °C 30.14in /  1020.5hPa NNE 2.1mph /  3.4km/h 6mph /  9.7km/h 64.3% 0.00in /  0mm W/m2
18:14 67.5 °F /  19.7 °C 55.1 °F /  12.8 °C 30.14in /  1020.5hPa NNE 1.5mph /  2.4km/h 6mph /  9.7km/h 64.7% 0.00in /  0mm W/m2
18:19 67.2 °F /  19.6 °C 54.4 °F /  12.4 °C 30.15in /  1020.9hPa NNE 2mph /  3.2km/h 6mph /  9.7km/h 63.6% 0.00in /  0mm W/m2
18:24 66.8 °F /  19.3 °C 54 °F /  12.2 °C 30.15in /  1020.9hPa NNE 0.9mph /  1.4km/h 4mph /  6.4km/h 63.3% 0.00in /  0mm W/m2
18:29 66.6 °F /  19.2 °C 54.8 °F /  12.7 °C 30.15in /  1020.9hPa NNE 0.9mph /  1.4km/h 4mph /  6.4km/h 65.5% 0.00in /  0mm W/m2
18:34 66.4 °F /  19.1 °C 54.8 °F /  12.7 °C 30.15in /  1020.9hPa NNE 1.2mph /  1.9km/h 4mph /  6.4km/h 66.4% 0.00in /  0mm W/m2
18:39 66 °F /  18.9 °C 54.6 °F /  12.6 °C 30.15in /  1020.9hPa NNE 1.1mph /  1.8km/h 2mph /  3.2km/h 66.6% 0.00in /  0mm W/m2
18:44 65.8 °F /  18.8 °C 55 °F /  12.8 °C 30.15in /  1020.9hPa NNE 1.4mph /  2.3km/h 3mph /  4.8km/h 67.8% 0.00in /  0mm W/m2
18:49 65.7 °F /  18.7 °C 54.9 °F /  12.7 °C 30.15in /  1020.9hPa NNE 0.6mph /  1km/h 2mph /  3.2km/h 68% 0.00in /  0mm W/m2
18:54 65.6 °F /  18.7 °C 54.3 °F /  12.4 °C 30.15in /  1020.9hPa NNE 0.8mph /  1.3km/h 3mph /  4.8km/h 67% 0.00in /  0mm W/m2
18:59 65.3 °F /  18.5 °C 54.2 °F /  12.3 °C 30.15in /  1020.9hPa NNE 1.5mph /  2.4km/h 3mph /  4.8km/h 67% 0.00in /  0mm W/m2
19:04 65 °F /  18.3 °C 53.9 °F /  12.2 °C 30.15in /  1020.9hPa NNE 1.8mph /  2.9km/h 4mph /  6.4km/h 67% 0.00in /  0mm W/m2
19:09 64.8 °F /  18.2 °C 53.7 °F /  12.1 °C 30.15in /  1020.9hPa NNE 2mph /  3.2km/h 4mph /  6.4km/h 67% 0.00in /  0mm W/m2
19:14 64.6 °F /  18.1 °C 54 °F /  12.2 °C 30.15in /  1020.9hPa NNE 0.9mph /  1.4km/h 3mph /  4.8km/h 68.6% 0.00in /  0mm W/m2
19:19 64.3 °F /  17.9 °C 54.3 °F /  12.4 °C 30.15in /  1020.9hPa NNE 1mph /  1.6km/h 4mph /  6.4km/h 70% 0.00in /  0mm W/m2
19:24 64.1 °F /  17.8 °C 54.8 °F /  12.7 °C 30.15in /  1020.9hPa NNE 1mph /  1.6km/h 3mph /  4.8km/h 71.7% 0.00in /  0mm W/m2
19:29 64 °F /  17.8 °C 55.2 °F /  12.9 °C 30.15in /  1020.9hPa NNE 1.3mph /  2.1km/h 2mph /  3.2km/h 73% 0.00in /  0mm W/m2
19:34 63.9 °F /  17.7 °C 55.1 °F /  12.8 °C 30.16in /  1021.2hPa NNE 1.2mph /  1.9km/h 3mph /  4.8km/h 73.1% 0.00in /  0mm W/m2
19:39 63.9 °F /  17.7 °C 55.2 °F /  12.9 °C 30.16in /  1021.2hPa NNE 1.4mph /  2.3km/h 3mph /  4.8km/h 73.4% 0.00in /  0mm W/m2
19:44 63.9 °F /  17.7 °C 54.5 °F /  12.5 °C 30.16in /  1021.2hPa NNE 1.7mph /  2.7km/h 3mph /  4.8km/h 71.4% 0.00in /  0mm W/m2
19:49 63.9 °F /  17.7 °C 54.4 °F /  12.4 °C 30.16in /  1021.2hPa NNE 1.3mph /  2.1km/h 2mph /  3.2km/h 71.3% 0.00in /  0mm W/m2
19:54 63.9 °F /  17.7 °C 54.7 °F /  12.6 °C 30.16in /  1021.2hPa NNE 1.8mph /  2.9km/h 3mph /  4.8km/h 72% 0.00in /  0mm W/m2
19:59 63.9 °F /  17.7 °C 54.7 °F /  12.6 °C 30.17in /  1021.6hPa North 1.7mph /  2.7km/h 3mph /  4.8km/h 72% 0.00in /  0mm W/m2
20:04 63.7 °F /  17.6 °C 54.5 °F /  12.5 °C 30.17in /  1021.6hPa North 1.5mph /  2.4km/h 3mph /  4.8km/h 72% 0.00in /  0mm W/m2
20:09 63.7 °F /  17.6 °C 54.5 °F /  12.5 °C 30.17in /  1021.6hPa North 1mph /  1.6km/h 2mph /  3.2km/h 72% 0.00in /  0mm W/m2
20:14 63.7 °F /  17.6 °C 54.7 °F /  12.6 °C 30.17in /  1021.6hPa North 1.8mph /  2.9km/h 3mph /  4.8km/h 72.6% 0.00in /  0mm W/m2
20:19 63.5 °F /  17.5 °C 54.4 °F /  12.4 °C 30.17in /  1021.6hPa North 2.4mph /  3.9km/h 4mph /  6.4km/h 72.3% 0.00in /  0mm W/m2
20:24 63.5 °F /  17.5 °C 54.3 °F /  12.4 °C 30.17in /  1021.6hPa North 2.4mph /  3.9km/h 4mph /  6.4km/h 72% 0.00in /  0mm W/m2
20:29 63.5 °F /  17.5 °C 54.2 °F /  12.3 °C 30.17in /  1021.6hPa NNW 2.7mph /  4.3km/h 4mph /  6.4km/h 71.6% 0.00in /  0mm W/m2
20:34 63.5 °F /  17.5 °C 54.7 °F /  12.6 °C 30.17in /  1021.6hPa NNW 2.5mph /  4km/h 4mph /  6.4km/h 73% 0.00in /  0mm W/m2
20:39 63.3 °F /  17.4 °C 54.7 °F /  12.6 °C 30.17in /  1021.6hPa NNW 2.3mph /  3.7km/h 3mph /  4.8km/h 73.4% 0.00in /  0mm W/m2
20:44 63.3 °F /  17.4 °C 54.9 °F /  12.7 °C 30.17in /  1021.6hPa NNW 2.7mph /  4.3km/h 4mph /  6.4km/h 74% 0.00in /  0mm W/m2
20:49 63.2 °F /  17.3 °C 54.8 °F /  12.7 °C 30.17in /  1021.6hPa NNW 2.7mph /  4.3km/h 4mph /  6.4km/h 73.8% 0.00in /  0mm W/m2
20:54 63.3 °F /  17.4 °C 54.8 °F /  12.7 °C 30.18in /  1021.9hPa NNW 2.9mph /  4.7km/h 4mph /  6.4km/h 73.9% 0.00in /  0mm W/m2
20:59 63.3 °F /  17.4 °C 54.6 °F /  12.6 °C 30.18in /  1021.9hPa NNW 2.7mph /  4.3km/h 5mph /  8km/h 73.2% 0.00in /  0mm W/m2
21:04 63.4 °F /  17.4 °C 54.5 °F /  12.5 °C 30.18in /  1021.9hPa NNW 2.8mph /  4.5km/h 4mph /  6.4km/h 72.7% 0.00in /  0mm W/m2
21:09 63.4 °F /  17.4 °C 54.2 °F /  12.3 °C 30.18in /  1021.9hPa NNW 3mph /  4.8km/h 5mph /  8km/h 72.1% 0.00in /  0mm W/m2
21:14 63.4 °F /  17.4 °C 54.4 °F /  12.4 °C 30.18in /  1021.9hPa NNW 2.9mph /  4.7km/h 5mph /  8km/h 72.5% 0.00in /  0mm W/m2
21:19 63.3 °F /  17.4 °C 54.4 °F /  12.4 °C 30.18in /  1021.9hPa NNW 2.7mph /  4.3km/h 5mph /  8km/h 72.6% 0.00in /  0mm W/m2
21:24 63.3 °F /  17.4 °C 54.6 °F /  12.6 °C 30.17in /  1021.6hPa NNW 2.5mph /  4km/h 5mph /  8km/h 73.3% 0.00in /  0mm W/m2
21:29 63.3 °F /  17.4 °C 54.9 °F /  12.7 °C 30.17in /  1021.6hPa NNW 2.8mph /  4.5km/h 4mph /  6.4km/h 73.9% 0.00in /  0mm W/m2
21:34 63.3 °F /  17.4 °C 55.4 °F /  13 °C 30.17in /  1021.6hPa NNW 2.4mph /  3.9km/h 3mph /  4.8km/h 75.6% 0.00in /  0mm W/m2
21:39 63.2 °F /  17.3 °C 55.3 °F /  12.9 °C 30.17in /  1021.6hPa NNW 2.8mph /  4.5km/h 4mph /  6.4km/h 75.5% 0.00in /  0mm W/m2
21:44 63.1 °F /  17.3 °C 54.9 °F /  12.7 °C 30.17in /  1021.6hPa NNW 3mph /  4.8km/h 4mph /  6.4km/h 74.6% 0.00in /  0mm W/m2
21:49 63.1 °F /  17.3 °C 55.4 °F /  13 °C 30.17in /  1021.6hPa NNW 2.6mph /  4.2km/h 4mph /  6.4km/h 75.9% 0.00in /  0mm W/m2
21:54 63.1 °F /  17.3 °C 55.7 °F /  13.2 °C 30.17in /  1021.6hPa NNW 3mph /  4.8km/h 5mph /  8km/h 76.6% 0.00in /  0mm W/m2
21:59 63.1 °F /  17.3 °C 54.8 °F /  12.7 °C 30.17in /  1021.6hPa NNW 3.1mph /  5km/h 5mph /  8km/h 74.3% 0.00in /  0mm W/m2
22:04 63.1 °F /  17.3 °C 54 °F /  12.2 °C 30.17in /  1021.6hPa NNW 3.6mph /  5.8km/h 6mph /  9.7km/h 72.2% 0.00in /  0mm W/m2
22:09 63.3 °F /  17.4 °C 54.1 °F /  12.3 °C 30.17in /  1021.6hPa NNW 3.2mph /  5.1km/h 5mph /  8km/h 71.9% 0.00in /  0mm W/m2
22:14 63.3 °F /  17.4 °C 53.8 °F /  12.1 °C 30.17in /  1021.6hPa NNW 3.7mph /  6km/h 6mph /  9.7km/h 71.2% 0.00in /  0mm W/m2
22:19 63.3 °F /  17.4 °C 53.9 °F /  12.2 °C 30.17in /  1021.6hPa NNW 3.6mph /  5.8km/h 5mph /  8km/h 71.3% 0.00in /  0mm W/m2
22:24 63.4 °F /  17.4 °C 53.9 °F /  12.2 °C 30.17in /  1021.6hPa NNW 3.4mph /  5.5km/h 6mph /  9.7km/h 71.2% 0.00in /  0mm W/m2
22:29 63.7 °F /  17.6 °C 54.3 °F /  12.4 °C 30.17in /  1021.6hPa NNW 3.3mph /  5.3km/h 5mph /  8km/h 71.5% 0.00in /  0mm W/m2
22:34 63.7 °F /  17.6 °C 53.7 °F /  12.1 °C 30.17in /  1021.6hPa NNW 3.8mph /  6.1km/h 6mph /  9.7km/h 69.9% 0.00in /  0mm W/m2
22:39 63.7 °F /  17.6 °C 53.5 °F /  11.9 °C 30.17in /  1021.6hPa NNW 4.1mph /  6.6km/h 6mph /  9.7km/h 69.7% 0.00in /  0mm W/m2
22:44 63.7 °F /  17.6 °C 53.8 °F /  12.1 °C 30.16in /  1021.2hPa NNW 3.7mph /  6km/h 6mph /  9.7km/h 70.1% 0.00in /  0mm W/m2
22:49 63.7 °F /  17.6 °C 54 °F /  12.2 °C 30.16in /  1021.2hPa NNW 4.2mph /  6.8km/h 8mph /  12.9km/h 70.7% 0.00in /  0mm W/m2
22:54 63.7 °F /  17.6 °C 54.2 °F /  12.3 °C 30.16in /  1021.2hPa NNW 4.6mph /  7.4km/h 6mph /  9.7km/h 71.2% 0.00in /  0mm W/m2
22:59 63.5 °F /  17.5 °C 54.3 °F /  12.4 °C 30.16in /  1021.2hPa NNW 4.3mph /  6.9km/h 8mph /  12.9km/h 71.8% 0.00in /  0mm W/m2
23:04 63.4 °F /  17.4 °C 54.5 °F /  12.5 °C 30.16in /  1021.2hPa NNW 4.3mph /  6.9km/h 8mph /  12.9km/h 73% 0.00in /  0mm W/m2
23:09 63.3 °F /  17.4 °C 54.7 °F /  12.6 °C 30.16in /  1021.2hPa NNW 4.7mph /  7.6km/h 8mph /  12.9km/h 73.4% 0.00in /  0mm W/m2
23:14 63.3 °F /  17.4 °C 54.9 °F /  12.7 °C 30.16in /  1021.2hPa NNW 4mph /  6.4km/h 6mph /  9.7km/h 74% 0.00in /  0mm W/m2
23:19 63.3 °F /  17.4 °C 55 °F /  12.8 °C 30.16in /  1021.2hPa NNW 4.2mph /  6.8km/h 8mph /  12.9km/h 74.2% 0.00in /  0mm W/m2
23:24 63.3 °F /  17.4 °C 55.3 °F /  12.9 °C 30.16in /  1021.2hPa NNW 4.6mph /  7.4km/h 8mph /  12.9km/h 75.2% 0.00in /  0mm W/m2
23:29 63.3 °F /  17.4 °C 55.4 °F /  13 °C 30.16in /  1021.2hPa NNW 5.4mph /  8.7km/h 9mph /  14.5km/h 75.4% 0.00in /  0mm W/m2
23:34 63.3 °F /  17.4 °C 55.5 °F /  13.1 °C 30.16in /  1021.2hPa NNW 5.5mph /  8.9km/h 9mph /  14.5km/h 75.7% 0.00in /  0mm W/m2
23:39 63.3 °F /  17.4 °C 55.6 °F /  13.1 °C 30.16in /  1021.2hPa NNW 4.8mph /  7.7km/h 8mph /  12.9km/h 75.9% 0.00in /  0mm W/m2
23:44 63.3 °F /  17.4 °C 55.6 °F /  13.1 °C 30.16in /  1021.2hPa NNW 6.1mph /  9.8km/h 10mph /  16.1km/h 75.9% 0.00in /  0mm W/m2
23:49 63.5 °F /  17.5 °C 55.8 °F /  13.2 °C 30.16in /  1021.2hPa NNW 4.9mph /  7.9km/h 9mph /  14.5km/h 76% 0.00in /  0mm W/m2
23:54 63.3 °F /  17.4 °C 55.6 °F /  13.1 °C 30.16in /  1021.2hPa NNW 4.9mph /  7.9km/h 10mph /  16.1km/h 75.9% 0.00in /  0mm W/m2
23:59 63.3 °F /  17.4 °C 55.6 °F /  13.1 °C 30.16in /  1021.2hPa NNW 5.7mph /  9.2km/h 9mph /  14.5km/h 76% 0.00in /  0mm W/m2
Lake Worth, USA
Compliments of Weather Underground - 4 mb